Time;durP1;ratioP1;P1;durP2;ratioP2;P2;SDS_P1;SDS_P2;PMS_P1;PMS_P2;Temp;Humidity;BMP_temperature;BMP_pressure;BME280_temperature;BME280_humidity;BME280_pressure;Samples;Min_cycle;Max_cycle;Signal;HPM_P1;HPM_P2
2022/08/26 00:02:02;;;;;;;13.27;9.90;;;;;;;23.90;68.40;101140.34;4942809;29;20190;-68
2022/08/26 00:04:28;;;;;;;11.13;9.70;;;;;;;23.42;70.20;101143.94;4943041;29;20182;-68
2022/08/26 00:06:54;;;;;;;11.97;10.80;;;;;;;23.59;69.17;101149.47;4942593;29;20182;-71
2022/08/26 00:09:20;;;;;;;11.27;9.90;;;;;;;23.63;69.07;101147.56;4926080;29;20216;-69
2022/08/26 00:11:46;;;;;;;20.03;9.90;;;;;;;23.97;68.89;101144.47;4942098;29;20543;-71
2022/08/26 00:14:12;;;;;;;13.40;10.07;;;;;;;23.71;68.96;101150.81;4942371;29;20540;-69
2022/08/26 00:16:37;;;;;;;16.07;9.97;;;;;;;23.62;70.06;101145.84;4942513;29;20615;-70
2022/08/26 00:19:03;;;;;;;12.53;10.07;;;;;;;23.11;71.53;101153.00;4942751;29;20429;-68
2022/08/26 00:21:28;;;;;;;10.93;9.87;;;;;;;23.38;71.08;101145.81;4942519;29;20438;-67
2022/08/26 00:23:54;;;;;;;18.17;10.50;;;;;;;23.58;70.53;101145.06;4941956;29;20233;-67
2022/08/26 00:26:19;;;;;;;15.20;10.00;;;;;;;23.49;70.68;101141.00;4942818;29;20550;-68
2022/08/26 00:28:44;;;;;;;12.53;10.40;;;;;;;24.08;69.23;101140.53;4942250;29;20241;-68
2022/08/26 00:31:10;;;;;;;11.50;9.70;;;;;;;23.83;69.51;101139.69;4942312;29;20212;-68
2022/08/26 00:33:36;;;;;;;12.10;9.73;;;;;;;23.70;70.07;101133.94;4942554;29;20173;-68
2022/08/26 00:36:01;;;;;;;13.90;10.40;;;;;;;23.36;70.90;101143.22;4942128;29;20173;-67
2022/08/26 00:38:27;;;;;;;12.27;10.40;;;;;;;23.26;71.85;101140.97;4941974;29;20224;-68
2022/08/26 00:40:54;;;;;;;10.97;9.90;;;;;;;23.37;71.82;101138.78;4942284;29;20520;-67
2022/08/26 00:43:20;;;;;;;15.37;11.07;;;;;;;23.12;73.10;101142.31;4941722;29;20539;-68
2022/08/26 00:45:56;;;;;;;11.60;10.17;;;;;;;23.24;72.30;101135.72;4941956;29;20435;-70
2022/08/26 00:48:24;;;;;;;12.90;10.60;;;;;;;23.84;70.10;101122.78;4941976;29;20487;-67
2022/08/26 00:50:54;;;;;;;23.13;11.70;;;;;;;23.59;71.30;101141.50;4925192;29;20512;-68
2022/08/26 00:53:22;;;;;;;13.60;10.50;;;;;;;23.53;70.68;101137.28;4925207;29;20424;-67
2022/08/26 00:55:56;;;;;;;13.87;11.00;;;;;;;23.47;72.55;101131.31;4925291;29;20456;-67
2022/08/26 00:58:24;;;;;;;12.67;10.43;;;;;;;23.11;73.66;101134.41;4925708;29;20805;-67
2022/08/26 01:00:49;;;;;;;11.13;9.80;;;;;;;23.20;73.04;101134.09;4925278;29;20437;-68
2022/08/26 01:03:16;;;;;;;12.73;10.70;;;;;;;23.25;72.68;101136.59;4941944;29;20417;-68
2022/08/26 01:05:42;;;;;;;13.73;9.97;;;;;;;23.11;73.38;101135.28;4925083;29;20217;-67
2022/08/26 01:08:08;;;;;;;11.60;10.57;;;;;;;23.38;72.53;101138.72;4925214;29;20444;-67
2022/08/26 01:10:33;;;;;;;14.73;10.47;;;;;;;23.26;73.38;101138.31;4941843;29;20251;-68
2022/08/26 01:13:04;;;;;;;12.27;9.80;;;;;;;23.26;73.73;101138.31;4924850;29;20178;-69
2022/08/26 01:15:33;;;;;;;14.23;11.00;;;;;;;22.55;75.38;101133.69;4925144;29;20180;-67
2022/08/26 01:17:59;;;;;;;11.63;10.33;;;;;;;23.18;74.19;101131.50;4925378;29;20460;-67
2022/08/26 01:20:47;;;;;;;12.87;10.67;;;;;;;23.34;71.96;101133.56;4924925;29;20409;-68
2022/08/26 01:23:13;;;;;;;11.20;10.17;;;;;;;23.00;74.04;101122.38;4941176;29;20397;-67
2022/08/26 01:25:42;;;;;;;18.03;10.53;;;;;;;22.98;74.53;101131.31;4941500;29;20448;-67
2022/08/26 01:28:13;;;;;;;12.23;10.73;;;;;;;22.92;74.44;101126.22;4924933;29;20445;-67
2022/08/26 01:30:40;;;;;;;14.63;10.40;;;;;;;23.75;72.19;101116.97;4924562;29;20523;-67
2022/08/26 01:33:10;;;;;;;12.10;10.33;;;;;;;23.49;72.03;101135.66;4941011;29;20500;-66
2022/08/26 01:35:36;;;;;;;18.10;11.00;;;;;;;23.20;73.38;101136.75;4941635;29;20810;-68
2022/08/26 01:38:02;;;;;;;13.20;11.80;;;;;;;23.02;74.56;101138.25;4941125;29;20421;-67
2022/08/26 01:40:31;;;;;;;11.50;9.90;;;;;;;23.44;72.82;101132.31;4941515;29;20178;-67
2022/08/26 01:42:57;;;;;;;14.17;10.40;;;;;;;23.96;70.47;101125.91;4924685;29;20692;-67
2022/08/26 01:45:25;;;;;;;11.27;10.17;;;;;;;23.93;70.41;101129.53;4940941;29;20440;-67
2022/08/26 01:47:53;;;;;;;12.47;10.33;;;;;;;23.18;72.18;101133.28;4924660;29;20772;-67
2022/08/26 01:50:25;;;;;;;16.87;10.97;;;;;;;23.55;71.38;101132.75;4924731;29;20535;-66
2022/08/26 01:52:52;;;;;;;12.77;10.10;;;;;;;23.40;73.06;101129.84;4924218;29;20755;-68
2022/08/26 01:55:19;;;;;;;12.00;10.80;;;;;;;23.01;74.01;101139.19;4924361;29;20697;-68
2022/08/26 01:57:46;;;;;;;12.57;10.00;;;;;;;23.27;73.33;101138.25;4924265;29;20422;-68
2022/08/26 02:00:13;;;;;;;12.67;11.00;;;;;;;23.65;70.71;101130.63;4924454;29;20413;-68
2022/08/26 02:02:41;;;;;;;18.47;10.80;;;;;;;23.32;72.88;101130.13;4941215;29;20689;-68
2022/08/26 02:05:08;;;;;;;13.07;10.77;;;;;;;23.50;72.08;101126.75;4924091;29;20512;-68
2022/08/26 02:07:33;;;;;;;13.27;11.17;;;;;;;23.64;71.19;101117.38;4924252;29;20445;-69
2022/08/26 02:09:59;;;;;;;12.50;11.20;;;;;;;23.32;71.93;101127.44;4941107;29;20851;-67
2022/08/26 02:12:24;;;;;;;15.83;11.10;;;;;;;23.38;72.92;101119.22;4940690;29;20184;-67
2022/08/26 02:14:52;;;;;;;14.47;11.63;;;;;;;22.43;74.94;101127.00;4924010;29;20536;-68
2022/08/26 02:17:21;;;;;;;12.53;11.07;;;;;;;22.45;76.08;101126.97;4929034;29;20181;-67
2022/08/26 02:19:48;;;;;;;13.63;11.07;;;;;;;22.96;74.42;101122.53;4947029;29;20472;-67
2022/08/26 02:22:17;;;;;;;16.40;11.70;;;;;;;22.75;75.43;101122.38;4946897;29;20427;-67
2022/08/26 02:24:54;;;;;;;12.23;11.00;;;;;;;22.49;75.69;101121.50;4946842;29;20865;-66
2022/08/26 02:27:24;;;;;;;12.70;10.70;;;;;;;22.88;75.17;101117.50;4947022;29;20428;-67
2022/08/26 02:30:14;;;;;;;13.47;11.17;;;;;;;22.63;75.12;101118.34;4947595;29;20500;-68
2022/08/26 02:32:40;;;;;;;12.87;11.33;;;;;;;23.16;73.73;101122.69;4924852;29;20452;-68
2022/08/26 02:35:07;;;;;;;13.33;11.40;;;;;;;23.42;72.97;101118.22;4930259;29;20425;-66
2022/08/26 02:37:32;;;;;;;15.10;11.50;;;;;;;22.94;74.78;101119.06;4946596;29;20188;-67
2022/08/26 02:39:59;;;;;;;15.03;11.90;;;;;;;23.28;72.57;101115.19;4946814;29;20453;-67
2022/08/26 02:42:24;;;;;;;13.00;11.80;;;;;;;23.35;72.84;101111.38;4930716;29;20178;-68
2022/08/26 02:44:50;;;;;;;13.17;11.53;;;;;;;22.87;74.58;101116.63;4946730;29;20424;-66
2022/08/26 02:47:15;;;;;;;14.17;11.13;;;;;;;23.55;72.16;101116.78;4946878;29;20264;-67
2022/08/26 02:49:42;;;;;;;13.17;11.77;;;;;;;23.46;72.40;101114.50;4947168;29;20463;-67
2022/08/26 02:52:08;;;;;;;17.97;11.63;;;;;;;22.53;76.11;101114.28;4946601;29;20212;-67
2022/08/26 02:54:34;;;;;;;13.30;10.50;;;;;;;22.56;76.05;101113.31;4946907;29;20425;-67
2022/08/26 02:56:59;;;;;;;14.67;11.07;;;;;;;22.93;74.63;101119.97;4947225;29;20201;-67
2022/08/26 02:59:25;;;;;;;12.33;11.10;;;;;;;22.95;74.79;101110.16;4946623;29;20174;-68
2022/08/26 03:01:51;;;;;;;14.10;11.67;;;;;;;22.75;74.39;101111.75;4946676;29;20181;-68
2022/08/26 03:04:16;;;;;;;14.03;11.67;;;;;;;22.91;74.52;101106.75;4946834;29;20176;-69
2022/08/26 03:06:41;;;;;;;13.90;12.47;;;;;;;22.60;76.63;101109.63;4946586;29;20205;-67
2022/08/26 03:09:07;;;;;;;12.40;11.10;;;;;;;22.49;76.19;101113.53;4946631;29;20182;-67
2022/08/26 03:11:34;;;;;;;12.90;11.07;;;;;;;22.57;77.80;101109.72;4930369;29;20470;-67
2022/08/26 03:14:00;;;;;;;17.17;11.80;;;;;;;22.16;78.10;101103.09;4946381;29;20887;-68
2022/08/26 03:16:25;;;;;;;13.30;11.80;;;;;;;22.69;76.25;101102.19;4946607;29;20457;-68
2022/08/26 03:18:51;;;;;;;14.50;12.00;;;;;;;22.69;75.47;101098.66;4946703;29;20174;-68
2022/08/26 03:21:17;;;;;;;15.13;11.40;;;;;;;22.57;76.83;101096.44;4946423;29;20185;-68
2022/08/26 03:23:43;;;;;;;18.20;12.43;;;;;;;22.26;77.83;101095.69;4946182;29;20662;-67
2022/08/26 03:26:11;;;;;;;14.67;12.00;;;;;;;22.59;76.06;101092.81;4946913;29;20256;-67
2022/08/26 03:30:38;;;;;;;16.53;11.80;;;;;;;22.12;78.25;101096.16;4943135;29;20517;-68
2022/08/26 03:31:26;;;;;;;16.23;11.83;;;;;;;22.28;77.89;101090.31;4943408;29;20472;-67
2022/08/26 03:33:52;;;;;;;14.97;12.03;;;;;;;22.89;75.74;101087.31;4943186;29;20484;-68
2022/08/26 03:36:17;;;;;;;19.53;12.87;;;;;;;22.29;77.65;101086.75;4943319;29;20240;-68
2022/08/26 03:38:42;;;;;;;13.13;11.70;;;;;;;22.35;77.39;101086.53;4927093;29;20269;-68
2022/08/26 03:41:09;;;;;;;14.60;13.00;;;;;;;22.89;74.96;101082.00;4943150;29;20185;-67
2022/08/26 03:43:35;;;;;;;12.00;10.90;;;;;;;22.19;77.08;101084.38;4943138;29;20177;-67
2022/08/26 03:46:09;;;;;;;17.93;13.93;;;;;;;22.56;76.68;101082.28;4926865;29;20433;-66
2022/08/26 03:48:34;;;;;;;15.60;11.90;;;;;;;22.58;77.35;101082.22;4926700;29;20181;-68
2022/08/26 03:51:01;;;;;;;14.07;12.57;;;;;;;22.77;75.72;101083.34;4942983;29;20480;-67
2022/08/26 03:53:26;;;;;;;16.97;12.90;;;;;;;22.53;76.79;101085.91;4943173;29;20174;-67
2022/08/26 03:55:52;;;;;;;17.50;12.70;;;;;;;22.67;76.44;101087.22;4943180;29;20469;-66
2022/08/26 03:58:19;;;;;;;15.57;12.00;;;;;;;22.58;74.97;101090.19;4942656;29;20240;-67
2022/08/26 04:00:44;;;;;;;16.30;13.00;;;;;;;22.23;77.03;101087.81;4942718;29;20269;-68
2022/08/26 04:03:10;;;;;;;18.80;12.80;;;;;;;22.74;76.55;101083.41;4942548;29;20769;-68
2022/08/26 04:05:35;;;;;;;14.33;12.70;;;;;;;22.05;77.01;101081.31;4943178;29;20174;-67
2022/08/26 04:08:01;;;;;;;14.03;12.30;;;;;;;22.65;76.90;101081.97;4942823;29;20189;-67
2022/08/26 04:10:27;;;;;;;14.60;13.10;;;;;;;21.96;78.46;101086.91;4942683;29;20197;-68
2022/08/26 04:12:52;;;;;;;14.90;11.60;;;;;;;22.54;75.75;101074.38;4943078;29;20181;-67
2022/08/26 04:15:20;;;;;;;13.87;12.40;;;;;;;22.41;76.72;101078.38;4942632;29;20463;-67
2022/08/26 04:17:46;;;;;;;16.53;13.33;;;;;;;22.34;77.46;101077.72;4942600;29;20169;-68
2022/08/26 04:20:12;;;;;;;16.30;12.80;;;;;;;21.81;79.93;101078.56;4943050;29;20851;-68
2022/08/26 04:22:39;;;;;;;13.60;12.07;;;;;;;22.31;78.23;101069.84;4942469;29;20181;-66
2022/08/26 04:25:05;;;;;;;13.60;12.23;;;;;;;22.10;77.50;101071.41;4925773;29;20465;-66
2022/08/26 04:27:30;;;;;;;14.80;12.60;;;;;;;22.18;78.32;101073.81;4942774;29;20687;-67
2022/08/26 04:29:56;;;;;;;12.93;11.47;;;;;;;22.15;78.97;101072.13;4942269;29;20533;-66
2022/08/26 04:32:22;;;;;;;14.33;12.83;;;;;;;22.48;77.77;101068.41;4942290;29;20237;-67
2022/08/26 04:34:47;;;;;;;16.00;12.30;;;;;;;23.00;75.01;101063.88;4942579;29;20173;-67
2022/08/26 04:37:13;;;;;;;14.90;11.70;;;;;;;22.30;77.55;101057.47;4942403;29;20173;-66
2022/08/26 04:39:38;;;;;;;17.50;12.40;;;;;;;22.56;76.79;101054.88;4941818;29;20277;-66
2022/08/26 04:42:04;;;;;;;13.43;12.03;;;;;;;22.67;75.27;101056.19;4942640;29;20188;-69
2022/08/26 04:44:30;;;;;;;14.30;12.90;;;;;;;22.37;76.82;101058.16;4939988;29;20189;-69
2022/08/26 04:46:56;;;;;;;16.10;12.30;;;;;;;21.64;79.73;101067.59;4941357;29;20430;-69
2022/08/26 04:49:21;;;;;;;13.23;11.93;;;;;;;21.96;79.91;101071.00;4940824;29;20177;-68
2022/08/26 04:51:50;;;;;;;14.87;12.93;;;;;;;22.13;78.00;101062.47;4941647;29;20216;-69
2022/08/26 04:54:15;;;;;;;12.73;11.43;;;;;;;22.40;77.48;101066.00;4941305;29;20208;-70
2022/08/26 04:56:43;;;;;;;13.87;12.27;;;;;;;22.28;77.24;101064.59;4941792;29;20421;-69
2022/08/26 04:59:14;;;;;;;20.80;12.07;;;;;;;22.33;77.86;101065.31;4941455;29;20260;-70
2022/08/26 05:01:42;;;;;;;13.20;12.10;;;;;;;22.31;77.00;101071.59;4941430;29;20441;-70
2022/08/26 05:04:08;;;;;;;18.70;11.80;;;;;;;22.80;76.62;101069.91;4950435;29;20519;-70
2022/08/26 05:06:33;;;;;;;13.27;11.93;;;;;;;22.69;76.85;101065.00;4960278;29;20519;-70
2022/08/26 05:08:58;;;;;;;13.47;12.10;;;;;;;23.32;74.12;101079.56;4943814;29;20617;-70
2022/08/26 05:11:24;;;;;;;13.33;12.00;;;;;;;22.67;74.27;101073.94;4959952;28;20212;-72
2022/08/26 05:13:52;;;;;;;14.47;12.10;;;;;;;23.95;71.51;101069.13;4959897;28;20177;-69
2022/08/26 05:16:18;;;;;;;13.50;10.97;;;;;;;23.72;71.64;101070.03;4959184;28;20445;-71
2022/08/26 05:18:44;;;;;;;12.97;11.67;;;;;;;23.17;74.36;101076.56;4959388;28;20515;-72
2022/08/26 05:21:22;;;;;;;15.33;12.30;;;;;;;22.78;75.25;101074.41;4959744;29;20177;-72
2022/08/26 05:23:50;;;;;;;16.63;13.23;;;;;;;22.98;73.52;101075.50;4958993;28;20467;-74
2022/08/26 05:26:16;;;;;;;14.13;11.60;;;;;;;22.94;75.89;101076.53;4959970;28;20429;-71
2022/08/26 05:28:41;;;;;;;13.00;11.23;;;;;;;23.25;73.58;101078.09;4959982;28;20419;-72
2022/08/26 05:31:28;;;;;;;18.57;12.30;;;;;;;23.13;75.09;101074.09;4959173;28;20776;-72
2022/08/26 05:33:56;;;;;;;14.20;11.70;;;;;;;23.30;73.84;101066.34;4959446;28;20181;-71
2022/08/26 05:36:23;;;;;;;12.33;11.10;;;;;;;24.01;71.63;101066.19;4959614;28;20432;-67
2022/08/26 05:38:49;;;;;;;13.73;11.60;;;;;;;22.99;74.79;101067.44;4959113;29;20452;-68
2022/08/26 05:41:31;;;;;;;13.87;10.87;;;;;;;23.29;73.35;101074.38;4960048;29;20416;-68
2022/08/26 05:43:57;;;;;;;15.27;11.73;;;;;;;23.15;74.19;101075.75;4958617;29;20184;-68
2022/08/26 05:46:23;;;;;;;12.03;10.83;;;;;;;24.36;69.14;101063.84;4958013;29;20439;-69
2022/08/26 05:48:48;;;;;;;15.17;10.87;;;;;;;25.65;64.64;101060.75;4958180;28;20507;-68
2022/08/26 05:51:14;;;;;;;25.13;11.47;;;;;;;25.39;65.68;101063.72;4958658;28;20221;-69
2022/08/26 05:53:40;;;;;;;12.90;9.83;;;;;;;26.09;63.40;101068.41;4942514;29;20176;-69
2022/08/26 05:56:07;;;;;;;20.63;10.10;;;;;;;26.63;60.95;101075.44;4958210;28;20236;-69
2022/08/26 05:58:34;;;;;;;17.20;10.93;;;;;;;25.08;65.05;101076.75;4921688;29;20437;-70
2022/08/26 06:01:09;;;;;;;13.60;10.00;;;;;;;25.97;63.37;101075.19;4921955;29;20433;-69
2022/08/26 06:03:37;;;;;;;10.60;9.50;;;;;;;25.43;63.57;101075.13;4921350;29;20421;-71
2022/08/26 06:06:08;;;;;;;15.40;10.30;;;;;;;25.99;62.43;101072.44;4921612;29;20426;-71
2022/08/26 06:08:33;;;;;;;11.60;9.57;;;;;;;28.04;56.52;101066.81;4921667;29;20497;-70
2022/08/26 06:11:01;;;;;;;12.97;10.00;;;;;;;27.66;56.52;101066.34;4921226;29;20477;-70
2022/08/26 06:13:27;;;;;;;12.50;9.10;;;;;;;27.27;58.95;101071.13;4921813;29;20170;-71
2022/08/26 06:15:53;;;;;;;12.13;10.17;;;;;;;27.89;55.90;101056.97;4921513;29;20514;-71
2022/08/26 06:18:22;;;;;;;16.03;10.00;;;;;;;26.97;58.57;101068.34;4921519;29;20189;-70
2022/08/26 06:20:49;;;;;;;13.50;10.43;;;;;;;25.66;62.50;101067.81;4921688;29;20419;-70
2022/08/26 06:26:00;;;;;;;12.00;9.57;;;;;;;28.88;53.77;101057.31;4921576;29;20517;-70
2022/08/26 06:28:26;;;;;;;12.23;9.37;;;;;;;29.32;52.67;101051.94;4920973;29;20559;-68
2022/08/26 06:30:53;;;;;;;14.03;9.70;;;;;;;29.39;52.64;101047.91;4921293;29;20213;-68
2022/08/26 06:33:19;;;;;;;10.60;9.30;;;;;;;30.18;49.56;101043.56;4921528;29;20186;-69
2022/08/26 06:35:45;;;;;;;15.53;9.40;;;;;;;29.20;52.50;101051.72;4921413;29;20430;-70
2022/08/26 06:38:11;;;;;;;13.57;8.53;;;;;;;29.99;50.51;101049.31;4932735;29;20205;-68
2022/08/26 06:40:41;;;;;;;13.27;9.10;;;;;;;28.46;53.59;101052.75;4940410;29;20409;-66
2022/08/26 06:43:07;;;;;;;11.93;8.77;;;;;;;28.38;54.46;101053.22;4940044;29;20452;-68
2022/08/26 06:45:33;;;;;;;11.57;9.30;;;;;;;27.17;57.72;101060.09;4940377;29;20418;-68
2022/08/26 06:47:58;;;;;;;11.03;9.93;;;;;;;25.03;64.62;101061.81;4940492;29;20693;-63
2022/08/26 06:50:24;;;;;;;13.23;9.83;;;;;;;26.00;62.29;101063.47;4940123;29;20228;-66
2022/08/26 06:52:51;;;;;;;14.73;9.40;;;;;;;27.17;58.33;101067.22;4937286;29;20196;-66
2022/08/26 06:55:17;;;;;;;12.53;10.30;;;;;;;27.29;57.24;101073.72;4958851;29;20173;-67
2022/08/26 06:57:42;;;;;;;13.20;9.40;;;;;;;27.94;55.83;101072.78;4959158;29;20799;-65
2022/08/26 07:00:11;;;;;;;11.40;8.50;;;;;;;29.98;51.00;101069.09;4958890;29;20303;-65
2022/08/26 07:02:38;;;;;;;12.63;9.03;;;;;;;30.25;49.70;101070.88;4960419;28;20173;-66
2022/08/26 07:05:04;;;;;;;13.20;8.70;;;;;;;30.27;48.79;101074.34;4962940;29;20447;-66
2022/08/26 07:07:30;;;;;;;13.90;8.43;;;;;;;29.66;51.22;101084.66;4930319;29;20439;-66
2022/08/26 07:09:55;;;;;;;12.10;8.37;;;;;;;30.86;47.59;101090.00;4963110;28;20432;-65
2022/08/26 07:12:21;;;;;;;13.60;8.97;;;;;;;31.46;46.63;101082.19;4962593;29;20219;-66
2022/08/26 07:14:47;;;;;;;14.20;8.60;;;;;;;32.09;44.98;101082.03;4962627;29;20312;-66
2022/08/26 07:17:13;;;;;;;12.10;8.30;;;;;;;29.30;51.48;101088.78;4947771;29;20229;-65
2022/08/26 07:19:38;;;;;;;14.27;9.03;;;;;;;31.70;46.01;101086.75;4943267;29;20425;-72
2022/08/26 07:22:04;;;;;;;12.93;8.13;;;;;;;31.53;46.83;101090.69;4943463;29;20425;-72
2022/08/26 07:24:34;;;;;;;11.37;8.87;;;;;;;28.48;52.08;101096.44;4942912;29;20484;-71
2022/08/26 07:27:04;;;;;;;15.00;8.97;;;;;;;29.93;50.50;101099.94;4943291;29;20425;-71
2022/08/26 07:29:30;;;;;;;14.13;8.33;;;;;;;31.05;47.41;101096.81;4943677;29;20673;-68
2022/08/26 07:31:55;;;;;;;10.23;8.83;;;;;;;28.75;52.59;101104.66;4943268;29;20480;-72
2022/08/26 07:34:21;;;;;;;14.23;8.63;;;;;;;27.88;54.38;101103.47;4943050;29;20496;-72
2022/08/26 07:36:47;;;;;;;13.83;9.93;;;;;;;27.89;55.14;101094.50;4943445;29;20197;-73
2022/08/26 07:39:12;;;;;;;17.77;11.23;;;;;;;28.50;53.47;101081.97;4943066;29;20488;-73
2022/08/26 07:41:37;;;;;;;15.60;10.90;;;;;;;29.05;52.57;101090.28;4943120;29;20407;-73
2022/08/26 07:44:03;;;;;;;16.23;9.70;;;;;;;28.03;55.03;101085.66;4943368;29;20252;-73
2022/08/26 07:46:28;;;;;;;12.07;9.90;;;;;;;28.56;53.25;101086.97;4943160;29;20209;-73
2022/08/26 07:48:54;;;;;;;15.27;9.77;;;;;;;27.99;54.90;101089.44;4943169;29;20595;-73
2022/08/26 07:51:20;;;;;;;16.53;10.27;;;;;;;28.55;53.63;101087.94;4943456;29;20201;-72
2022/08/26 07:53:46;;;;;;;14.83;9.77;;;;;;;27.93;55.08;101101.41;4942946;29;20559;-73
2022/08/26 07:56:11;;;;;;;13.90;10.80;;;;;;;26.02;60.89;101112.34;4943062;29;20421;-73
2022/08/26 07:58:37;;;;;;;13.53;9.57;;;;;;;26.54;59.12;101108.88;4943499;29;20174;-74
2022/08/26 08:01:03;;;;;;;11.50;9.70;;;;;;;28.34;54.61;101095.44;4926455;29;20462;-73
2022/08/26 08:03:28;;;;;;;16.30;10.60;;;;;;;28.21;54.50;101103.38;4942671;29;20193;-73
2022/08/26 08:05:53;;;;;;;13.57;10.10;;;;;;;27.57;56.71;101099.84;4943360;29;20788;-72
2022/08/26 08:08:19;;;;;;;14.20;9.87;;;;;;;27.37;57.11;101100.97;4942805;29;20181;-72
2022/08/26 08:10:45;;;;;;;15.73;10.37;;;;;;;27.44;57.01;101105.06;4942597;29;20300;-72
2022/08/26 08:13:10;;;;;;;14.30;10.57;;;;;;;28.95;53.16;101095.38;4942831;29;20182;-73
2022/08/26 08:15:36;;;;;;;15.57;11.03;;;;;;;29.94;50.64;101093.63;4942164;29;20542;-73
2022/08/26 08:18:02;;;;;;;12.50;10.23;;;;;;;29.97;50.37;101101.47;4942695;29;20551;-71
2022/08/26 08:20:28;;;;;;;15.03;10.60;;;;;;;30.52;48.48;101097.75;4943059;29;20182;-73
2022/08/26 08:22:54;;;;;;;14.17;9.77;;;;;;;28.50;53.46;101105.25;4942206;29;20514;-73
2022/08/26 08:25:20;;;;;;;11.70;9.70;;;;;;;29.40;51.50;101104.19;4942341;29;20549;-73
2022/08/26 08:27:47;;;;;;;12.73;9.40;;;;;;;30.67;48.08;101103.03;4942878;29;20181;-73
2022/08/26 08:30:15;;;;;;;15.50;8.70;;;;;;;29.95;49.01;101106.94;4942161;29;20516;-73
2022/08/26 08:32:42;;;;;;;14.33;9.20;;;;;;;28.97;52.25;101109.56;4942268;29;20428;-73
2022/08/26 08:35:09;;;;;;;10.60;8.87;;;;;;;27.58;55.62;101116.78;4943033;29;20432;-73
2022/08/26 08:37:35;;;;;;;14.20;8.90;;;;;;;28.54;53.17;101106.81;4941990;29;20508;-73
2022/08/26 08:40:01;;;;;;;14.10;9.60;;;;;;;27.76;55.86;101115.75;4941937;29;20500;-74
2022/08/26 08:42:33;;;;;;;12.97;9.73;;;;;;;28.84;52.63;101105.91;4942681;29;20402;-73
2022/08/26 08:45:04;;;;;;;12.30;9.50;;;;;;;28.66;52.34;101105.19;4942079;29;20462;-73
2022/08/26 08:47:33;;;;;;;15.17;9.33;;;;;;;29.37;51.43;101101.69;4925412;29;20738;-73
2022/08/26 08:50:08;;;;;;;13.27;10.40;;;;;;;30.02;49.53;101104.72;4941907;29;20504;-73
2022/08/26 08:52:34;;;;;;;17.53;11.23;;;;;;;29.47;50.40;101101.09;4925340;29;20525;-73
2022/08/26 08:55:01;;;;;;;13.37;9.57;;;;;;;29.78;50.34;101105.31;4925256;29;20421;-73
2022/08/26 08:57:40;;;;;;;15.47;10.57;;;;;;;29.29;51.13;101109.38;4941885;29;20815;-73
2022/08/26 09:00:13;;;;;;;19.43;10.27;;;;;;;29.42;51.61;101101.41;4925350;29;20425;-73
2022/08/26 09:03:02;;;;;;;18.10;9.67;;;;;;;29.98;49.48;101095.97;4925209;29;20433;-73
2022/08/26 09:05:30;;;;;;;13.60;10.10;;;;;;;30.50;48.00;101097.00;4925228;29;20425;-73
2022/08/26 09:08:01;;;;;;;16.87;10.90;;;;;;;32.23;44.52;101086.38;4941793;29;20428;-72
2022/08/26 09:10:40;;;;;;;11.30;9.10;;;;;;;34.95;38.42;101076.84;4941386;29;20733;-72
2022/08/26 09:13:17;;;;;;;13.60;8.77;;;;;;;33.72;40.32;101079.09;4924814;29;20421;-73
2022/08/26 09:16:20;;;;;;;13.43;8.10;;;;;;;33.56;41.56;101074.09;4941762;29;20516;-73
2022/08/26 09:19:17;;;;;;;13.50;8.30;;;;;;;32.19;44.34;101084.91;4941671;29;20413;-73
2022/08/26 09:21:43;;;;;;;11.53;8.17;;;;;;;31.97;44.76;101083.81;4941169;29;20477;-72
2022/08/26 09:24:08;;;;;;;16.90;8.93;;;;;;;31.61;45.57;101088.31;4941072;29;20473;-73
2022/08/26 09:26:51;;;;;;;11.90;8.50;;;;;;;30.29;48.57;101093.06;4940265;29;20265;-73
2022/08/26 09:29:30;;;;;;;18.13;9.87;;;;;;;30.68;47.14;101088.63;4924761;29;20191;-73
2022/08/26 09:32:18;;;;;;;15.07;9.87;;;;;;;30.26;48.38;101087.91;4941193;29;20524;-73
2022/08/26 09:35:06;;;;;;;14.80;10.17;;;;;;;31.30;45.75;101078.88;4941236;29;20861;-73
2022/08/26 09:37:46;;;;;;;16.33;10.23;;;;;;;30.97;46.45;101077.63;4941059;29;20485;-72
2022/08/26 09:40:12;;;;;;;13.30;9.70;;;;;;;30.36;48.13;101079.09;4924447;29;20445;-72
2022/08/26 09:42:37;;;;;;;12.97;10.00;;;;;;;30.84;46.46;101083.03;4940796;29;20409;-73
2022/08/26 09:45:07;;;;;;;13.33;10.03;;;;;;;30.67;47.87;101076.97;4941430;29;20304;-72
2022/08/26 09:47:37;;;;;;;15.93;9.93;;;;;;;30.80;47.78;101076.13;4941378;29;20173;-72
2022/08/26 09:50:08;;;;;;;16.77;9.27;;;;;;;30.38;48.23;101084.38;4941026;29;20453;-73
2022/08/26 09:52:34;;;;;;;16.10;10.63;;;;;;;29.70;50.03;101091.53;4940910;29;20422;-73
2022/08/26 09:55:10;;;;;;;20.97;10.43;;;;;;;29.95;49.55;101088.13;4940955;29;20528;-73
2022/08/26 09:57:50;;;;;;;19.63;9.87;;;;;;;29.77;50.43;101087.50;4940779;29;20173;-73
2022/08/26 10:00:49;;;;;;;18.67;9.80;;;;;;;30.00;49.35;101085.13;4940868;29;20413;-72
2022/08/26 10:03:31;;;;;;;11.90;9.40;;;;;;;29.67;50.06;101081.00;4924106;29;20434;-72
2022/08/26 10:06:02;;;;;;;16.90;10.33;;;;;;;29.40;52.26;101082.72;4940886;29;20481;-72
2022/08/26 10:08:35;;;;;;;15.50;10.83;;;;;;;29.33;52.02;101073.31;4940950;29;20523;-72
2022/08/26 10:11:04;;;;;;;14.00;11.00;;;;;;;29.19;51.80;101071.47;4924173;29;20528;-72
2022/08/26 10:13:30;;;;;;;12.90;10.57;;;;;;;29.35;51.50;101067.84;4940507;29;20431;-72
2022/08/26 10:16:14;;;;;;;16.30;11.37;;;;;;;29.45;51.42;101065.44;4940731;29;20409;-72
2022/08/26 10:18:44;;;;;;;18.10;11.30;;;;;;;29.36;51.58;101057.03;4940755;29;20181;-72
2022/08/26 10:21:14;;;;;;;12.47;9.53;;;;;;;29.05;53.35;101044.66;4924144;29;20509;-72
2022/08/26 10:23:49;;;;;;;15.23;10.40;;;;;;;28.80;54.03;101046.19;4923883;29;20506;-71
2022/08/26 10:26:33;;;;;;;18.50;10.60;;;;;;;29.07;53.44;101034.69;4940501;29;20429;-72
2022/08/26 10:29:11;;;;;;;12.23;9.97;;;;;;;28.96;53.99;101034.50;4940488;29;20410;-72
2022/08/26 10:31:43;;;;;;;12.70;9.70;;;;;;;28.66;54.72;101032.78;4923888;29;20504;-73
2022/08/26 10:34:10;;;;;;;18.40;10.00;;;;;;;27.92;56.60;101031.81;4939395;29;20472;-72
2022/08/26 10:36:57;;;;;;;15.33;10.00;;;;;;;28.59;54.94;101028.72;4923857;29;20421;-72
2022/08/26 10:39:28;;;;;;;14.87;10.40;;;;;;;28.54;54.92;101021.81;4927721;29;20449;-72
2022/08/26 10:41:58;;;;;;;13.13;10.20;;;;;;;28.70;54.24;101018.25;4944230;29;20425;-72
2022/08/26 10:44:24;;;;;;;23.10;10.30;;;;;;;28.56;54.31;101013.69;4944034;29;20421;-72
2022/08/26 10:46:54;;;;;;;13.27;10.00;;;;;;;28.74;53.83;101019.78;4927455;29;20413;-72
2022/08/26 10:49:19;;;;;;;13.80;10.80;;;;;;;29.09;52.25;101013.97;4927538;29;20429;-72
2022/08/26 10:52:00;;;;;;;11.73;10.20;;;;;;;29.26;51.63;101012.06;4944238;29;20523;-72
2022/08/26 10:54:34;;;;;;;14.63;10.80;;;;;;;29.31;52.18;101012.59;4927872;29;20551;-72
2022/08/26 10:57:16;;;;;;;18.93;11.07;;;;;;;29.35;51.13;101008.75;4943996;29;20799;-72
2022/08/26 10:59:47;;;;;;;15.67;10.60;;;;;;;29.34;51.36;101007.91;4927525;29;20417;-71
2022/08/26 11:02:39;;;;;;;12.40;10.10;;;;;;;29.68;50.42;101007.50;4927482;29;20457;-71
2022/08/26 11:05:21;;;;;;;14.27;10.30;;;;;;;30.04;50.03;101004.19;4927387;29;20421;-71
2022/08/26 11:07:51;;;;;;;17.87;11.00;;;;;;;30.82;47.70;100998.81;4927174;29;20516;-71
2022/08/26 11:10:19;;;;;;;16.33;10.70;;;;;;;30.29;48.49;100996.25;4943780;29;20453;-71
2022/08/26 11:12:47;;;;;;;14.13;10.70;;;;;;;30.64;47.82;100992.94;4943777;29;20504;-71
2022/08/26 11:15:35;;;;;;;16.57;10.87;;;;;;;31.55;46.25;100984.50;4944208;29;20417;-71
2022/08/26 11:18:09;;;;;;;14.80;10.73;;;;;;;31.04;46.05;100985.56;4943510;29;20476;-71
2022/08/26 11:20:34;;;;;;;17.97;10.37;;;;;;;31.01;46.71;100979.50;4943473;29;20487;-71
2022/08/26 11:23:12;;;;;;;12.10;9.43;;;;;;;32.02;45.28;100972.91;4943186;29;20496;-71